Time;durP1;ratioP1;P1;durP2;ratioP2;P2;SDS_P1;SDS_P2;PMS_P1;PMS_P2;Temp;Humidity;BMP_temperature;BMP_pressure;BME280_temperature;BME280_humidity;BME280_pressure;Samples;Min_cycle;Max_cycle;Signal;HPM_P1;HPM_P2
2022/01/10 00:02:07;;;;;;;;;0.75;0.50;;;;;6.80;72.48;100674.06;5047446;28;45367;-79
2022/01/10 00:04:33;;;;;;;;;2.00;1.00;;;;;7.00;72.75;100702.09;5039528;28;46526;-79
2022/01/10 00:06:58;;;;;;;;;2.00;0.75;;;;;7.12;72.64;100717.03;5039458;28;45628;-79
2022/01/10 00:09:23;;;;;;;;;3.25;2.00;;;;;7.08;72.84;100714.38;5024700;28;45425;-79
2022/01/10 00:11:49;;;;;;;;;1.75;1.75;;;;;7.00;72.60;100699.50;5044550;28;45452;-79
2022/01/10 00:14:14;;;;;;;;;0.00;0.00;;;;;6.96;72.58;100693.41;5062991;28;45498;-79
2022/01/10 00:16:40;;;;;;;;;2.00;0.00;;;;;7.14;72.74;100720.56;5031971;28;45877;-79
2022/01/10 00:19:06;;;;;;;;;0.75;0.00;;;;;7.07;72.62;100712.63;5025172;28;45464;-79
2022/01/10 00:21:31;;;;;;;;;1.25;1.25;;;;;7.03;72.34;100723.75;5043211;28;45395;-78
2022/01/10 00:23:56;;;;;;;;;2.00;2.00;;;;;7.08;72.72;100745.44;5042506;28;45290;-79
2022/01/10 00:26:22;;;;;;;;;3.25;1.75;;;;;6.92;73.14;100735.59;5023503;28;45375;-79
2022/01/10 00:28:47;;;;;;;;;3.00;1.00;;;;;6.94;72.88;100736.47;5022940;28;45313;-79
2022/01/10 00:31:13;;;;;;;;;3.75;3.00;;;;;6.89;72.37;100735.53;5005211;28;45786;-79
2022/01/10 00:33:38;;;;;;;;;1.00;1.00;;;;;6.91;72.98;100745.06;5022340;28;45428;-79
2022/01/10 00:36:04;;;;;;;;;2.00;2.00;;;;;6.85;72.53;100737.16;5022848;28;45376;-79
2022/01/10 00:38:29;;;;;;;;;2.25;1.00;;;;;6.94;72.83;100757.19;5022760;28;45282;-79
2022/01/10 00:40:55;;;;;;;;;2.00;2.00;;;;;6.64;72.95;100711.66;5022968;28;45433;-79
2022/01/10 00:43:30;;;;;;;;;1.75;1.75;;;;;6.85;72.76;100752.66;5022555;28;45781;-79
2022/01/10 00:45:57;;;;;;;;;2.50;2.50;;;;;6.81;72.60;100751.75;5022285;28;45445;-79
2022/01/10 00:48:22;;;;;;;;;3.25;2.75;;;;;6.75;73.17;100741.22;5012423;28;45459;-78
2022/01/10 00:50:48;;;;;;;;;2.50;2.50;;;;;6.70;73.28;100737.63;5042820;28;45903;-79
2022/01/10 00:53:13;;;;;;;;;5.25;1.00;;;;;6.94;73.11;100772.72;5024264;28;47954;-79
2022/01/10 00:55:39;;;;;;;;;3.50;3.50;;;;;6.83;72.80;100762.13;5042354;28;45455;-79
2022/01/10 00:58:04;;;;;;;;;2.75;2.75;;;;;6.82;73.04;100747.41;5042351;28;45449;-79
2022/01/10 01:00:29;;;;;;;;;3.00;3.00;;;;;6.76;72.80;100765.38;5024775;28;45491;-79
2022/01/10 01:02:55;;;;;;;;;0.50;0.50;;;;;6.69;73.05;100759.19;5011637;28;47157;-79
2022/01/10 01:05:22;;;;;;;;;4.00;1.25;;;;;6.75;72.84;100773.97;5004421;28;45404;-79
2022/01/10 01:07:48;;;;;;;;;3.00;1.50;;;;;6.49;73.49;100740.59;5022671;28;45409;-79
2022/01/10 01:12:51;;;;;;;;;4.25;4.00;;;;;6.75;73.26;100792.09;5026072;28;45644;-79
2022/01/10 01:15:24;;;;;;;;;3.00;3.00;;;;;6.51;73.19;100782.84;5041640;28;45426;-79
2022/01/10 01:23:59;;;;;;;;;3.25;3.00;;;;;6.45;73.63;100797.41;5009036;28;45565;-79
2022/01/10 01:26:15;;;;;;;;;2.50;2.00;;;;;6.38;73.44;100789.44;5039654;28;45494;-79
2022/01/10 01:28:41;;;;;;;;;3.00;3.00;;;;;6.03;73.24;100752.28;5041897;28;45336;-79
2022/01/10 01:31:06;;;;;;;;;3.50;2.00;;;;;6.42;73.31;100822.28;5023782;28;45622;-79
2022/01/10 01:33:32;;;;;;;;;4.00;4.00;;;;;6.41;73.32;100825.72;5042994;28;46959;-79
2022/01/10 01:35:57;;;;;;;;;8.25;4.25;;;;;6.34;73.65;100827.25;5043103;28;45491;-79
2022/01/10 01:38:23;;;;;;;;;5.75;5.00;;;;;6.29;73.32;100842.66;5061504;28;45367;-81
2022/01/10 01:40:59;;;;;;;;;4.75;4.50;;;;;6.34;73.56;100840.16;5061814;28;45442;-78
2022/01/10 01:43:24;;;;;;;;;6.00;5.00;;;;;6.39;73.43;100855.81;5061306;28;46854;-78
2022/01/10 01:45:50;;;;;;;;;4.00;4.00;;;;;6.40;73.40;100866.19;5057204;28;45339;-78
2022/01/10 01:48:16;;;;;;;;;4.25;4.25;;;;;6.19;73.60;100828.56;5038804;28;45380;-78
2022/01/10 01:50:43;;;;;;;;;3.00;1.25;;;;;6.25;73.87;100842.53;5023670;28;45351;-78
2022/01/10 01:53:09;;;;;;;;;2.50;2.25;;;;;6.40;73.41;100867.94;5041409;28;45640;-78
2022/01/10 01:55:35;;;;;;;;;3.50;3.50;;;;;6.43;73.68;100878.38;5041124;28;45340;-78
2022/01/10 01:58:01;;;;;;;;;6.25;4.75;;;;;6.33;73.63;100872.94;5041471;28;45450;-78
2022/01/10 02:00:27;;;;;;;;;2.00;2.00;;;;;6.37;73.46;100891.13;5041163;28;45566;-77
2022/01/10 02:02:54;;;;;;;;;2.00;1.50;;;;;6.28;73.92;100873.63;5055050;28;46264;-77
2022/01/10 02:05:20;;;;;;;;;2.00;2.00;;;;;6.30;73.85;100875.44;5061197;28;45819;-77
2022/01/10 02:07:45;;;;;;;;;2.00;1.25;;;;;6.31;73.96;100869.41;5061462;28;45304;-76
2022/01/10 02:10:11;;;;;;;;;3.00;3.00;;;;;6.40;73.77;100881.72;5061400;28;45571;-77
2022/01/10 02:12:37;;;;;;;;;5.50;4.00;;;;;5.90;74.04;100802.75;5042668;28;47334;-77
2022/01/10 02:15:03;;;;;;;;;2.00;1.25;;;;;6.28;73.57;100877.06;5061157;28;45344;-77
2022/01/10 02:17:35;;;;;;;;;4.75;3.50;;;;;6.27;73.89;100888.25;5061534;28;45531;-77
2022/01/10 02:20:03;;;;;;;;;3.00;3.00;;;;;6.13;73.74;100859.44;5027451;28;45837;-77
2022/01/10 02:22:28;;;;;;;;;1.75;1.75;;;;;6.17;74.20;100875.91;5041102;28;45691;-77
2022/01/10 02:24:54;;;;;;;;;4.00;3.50;;;;;6.18;73.52;100881.13;5022937;28;45313;-77
2022/01/10 02:27:25;;;;;;;;;4.00;2.50;;;;;6.14;74.08;100899.06;5041259;28;45364;-77
2022/01/10 02:29:51;;;;;;;;;6.00;6.00;;;;;6.08;74.36;100900.66;5022914;28;45516;-77
2022/01/10 02:32:20;;;;;;;;;3.25;2.25;;;;;6.04;74.14;100885.00;5038800;28;45542;-77
2022/01/10 02:34:45;;;;;;;;;4.00;2.00;;;;;5.98;74.19;100875.34;5038603;28;45482;-76
2022/01/10 02:37:11;;;;;;;;;5.25;3.25;;;;;5.98;73.77;100889.97;5022811;28;45435;-79
2022/01/10 02:39:37;;;;;;;;;7.00;5.00;;;;;5.91;74.00;100901.81;5052312;28;45448;-78
2022/01/10 02:42:02;;;;;;;;;4.25;4.25;;;;;5.90;74.65;100897.47;5060556;28;46123;-78
2022/01/10 02:44:29;;;;;;;;;4.75;3.00;;;;;5.91;74.35;100904.41;5042361;28;45448;-78
2022/01/10 02:46:55;;;;;;;;;5.25;4.25;;;;;5.86;73.98;100903.38;5060684;28;45479;-78
2022/01/10 02:49:26;;;;;;;;;5.00;3.75;;;;;5.67;74.67;100875.25;5046900;28;45431;-78
2022/01/10 02:51:54;;;;;;;;;5.50;3.50;;;;;5.43;74.16;100839.22;5040186;28;45549;-78
2022/01/10 02:54:25;;;;;;;;;3.25;2.00;;;;;5.88;74.57;100923.25;5022186;28;45429;-79
2022/01/10 02:56:54;;;;;;;;;5.00;5.00;;;;;5.91;74.36;100927.66;5022394;28;45416;-78
2022/01/10 02:59:21;;;;;;;;;7.25;5.00;;;;;5.67;74.51;100892.47;5005770;28;45550;-78
2022/01/10 03:01:47;;;;;;;;;4.50;4.00;;;;;5.57;74.34;100887.03;5021914;28;46410;-78
2022/01/10 03:04:15;;;;;;;;;7.50;4.50;;;;;5.78;73.67;100934.13;5026733;28;45356;-78
2022/01/10 03:06:40;;;;;;;;;4.00;4.00;;;;;5.63;74.31;100913.88;5060366;28;45441;-78
2022/01/10 03:09:06;;;;;;;;;4.00;4.00;;;;;5.55;74.16;100901.56;5052507;28;45401;-78
2022/01/10 03:11:39;;;;;;;;;6.50;4.00;;;;;5.75;74.23;100934.94;5022314;28;47153;-78
2022/01/10 03:14:05;;;;;;;;;6.75;5.00;;;;;5.70;74.11;100945.09;5034246;28;45842;-78
2022/01/10 03:16:30;;;;;;;;;4.50;4.50;;;;;5.61;74.32;100934.50;5059538;28;45446;-78
2022/01/10 03:18:56;;;;;;;;;6.00;5.00;;;;;5.52;74.01;100926.44;5060456;28;45420;-78
2022/01/10 03:21:21;;;;;;;;;5.00;4.50;;;;;5.76;74.09;100961.66;5060267;28;45418;-78
2022/01/10 03:23:51;;;;;;;;;4.25;4.00;;;;;5.69;74.26;100947.63;5050666;28;45322;-78
2022/01/10 03:26:20;;;;;;;;;7.75;4.00;;;;;5.70;74.03;100962.34;5040234;28;45455;-79
2022/01/10 03:28:46;;;;;;;;;5.75;4.75;;;;;5.52;73.94;100940.25;5040438;28;45414;-78
2022/01/10 03:31:11;;;;;;;;;6.50;4.75;;;;;5.64;73.70;100983.66;5039725;28;46075;-78
2022/01/10 03:33:37;;;;;;;;;6.50;6.50;;;;;5.60;74.36;100975.78;5030312;28;46040;-78
2022/01/10 03:36:03;;;;;;;;;10.25;4.25;;;;;5.47;73.91;100962.44;5055517;28;45312;-78
2022/01/10 03:38:29;;;;;;;;;8.00;5.75;;;;;5.41;74.18;100964.81;5031492;28;45434;-78
2022/01/10 03:40:54;;;;;;;;;6.75;6.00;;;;;5.33;73.79;100956.84;5021957;28;48046;-78
2022/01/10 03:43:19;;;;;;;;;7.75;7.00;;;;;5.36;74.04;100969.81;5041969;28;45821;-76
2022/01/10 03:45:45;;;;;;;;;5.75;5.75;;;;;5.22;74.09;100951.28;5043585;28;45380;-76
2022/01/10 03:48:10;;;;;;;;;9.75;5.75;;;;;5.33;74.31;100993.84;5044098;28;45360;-76
2022/01/10 03:50:36;;;;;;;;;5.50;4.50;;;;;5.20;74.34;100982.22;5043215;28;45303;-76
2022/01/10 03:53:02;;;;;;;;;6.50;4.25;;;;;5.14;74.28;100982.00;5025111;28;45615;-76
2022/01/10 03:55:27;;;;;;;;;5.25;5.25;;;;;5.13;74.21;100981.94;5062278;28;45700;-76
2022/01/10 03:57:52;;;;;;;;;4.00;4.00;;;;;4.94;74.29;100966.69;5063946;28;45452;-76
2022/01/10 04:00:18;;;;;;;;;10.50;7.00;;;;;5.01;74.01;100972.06;5063029;28;46226;-76
2022/01/10 04:02:53;;;;;;;;;8.50;5.50;;;;;4.94;73.66;100979.56;5045028;28;45937;-77
2022/01/10 04:05:18;;;;;;;;;9.25;5.25;;;;;5.09;73.72;101006.78;5063235;28;45327;-76
2022/01/10 04:07:44;;;;;;;;;4.00;4.00;;;;;4.93;74.17;100972.66;5058696;28;45556;-76
2022/01/10 04:10:09;;;;;;;;;8.50;5.75;;;;;5.16;74.04;101010.44;5042800;28;45372;-76
2022/01/10 04:12:35;;;;;;;;;5.75;5.75;;;;;5.11;74.31;101012.00;5028377;28;45569;-76
2022/01/10 04:15:00;;;;;;;;;3.75;3.75;;;;;4.86;74.56;100959.50;5063289;28;45793;-76
2022/01/10 04:17:25;;;;;;;;;6.75;5.25;;;;;5.07;74.37;101008.41;5056314;28;45400;-77
2022/01/10 04:19:51;;;;;;;;;5.75;5.25;;;;;5.18;74.40;101039.78;5062615;28;45636;-76
2022/01/10 04:22:16;;;;;;;;;10.00;6.00;;;;;4.93;74.33;101000.16;5042375;28;45491;-76
2022/01/10 04:24:42;;;;;;;;;9.75;6.75;;;;;5.19;74.02;101041.53;5042174;28;45361;-76
2022/01/10 04:27:07;;;;;;;;;10.00;7.50;;;;;5.00;74.49;101012.50;5058263;28;45438;-76
2022/01/10 04:29:32;;;;;;;;;4.75;4.25;;;;;5.14;74.23;101040.47;5062485;28;45385;-76
2022/01/10 04:32:00;;;;;;;;;6.00;5.75;;;;;5.02;74.16;101021.16;5062508;28;45498;-75
2022/01/10 04:34:25;;;;;;;;;12.50;9.00;;;;;4.88;73.88;101002.59;5042882;28;45382;-77
2022/01/10 04:36:51;;;;;;;;;8.00;5.25;;;;;5.04;74.00;101045.31;5062561;28;45756;-77
2022/01/10 04:39:16;;;;;;;;;9.00;8.50;;;;;5.04;74.11;101059.91;5043966;28;47491;-76
2022/01/10 04:41:41;;;;;;;;;11.75;9.25;;;;;4.82;74.06;101053.97;5027877;28;45810;-77
2022/01/10 04:44:07;;;;;;;;;8.25;6.00;;;;;4.83;74.62;101073.78;5024171;28;45422;-77
2022/01/10 04:46:33;;;;;;;;;9.50;5.75;;;;;4.52;73.88;101032.22;5042591;28;45505;-77
2022/01/10 04:48:59;;;;;;;;;5.50;4.50;;;;;4.82;74.19;101087.50;5041889;28;46581;-76
2022/01/10 04:51:27;;;;;;;;;8.50;5.00;;;;;4.67;74.91;101067.16;5042004;28;45723;-76
2022/01/10 04:53:53;;;;;;;;;0.00;0.00;;;;;4.53;73.63;101045.97;5041562;28;45415;-76
2022/01/10 04:56:19;;;;;;;;;8.75;7.50;;;;;4.61;74.65;101066.91;5042509;28;45431;-76
2022/01/10 04:58:47;;;;;;;;;8.75;4.75;;;;;4.69;74.19;101097.34;5046125;28;45467;-76
2022/01/10 05:01:13;;;;;;;;;5.00;4.00;;;;;4.42;73.65;101069.69;5061699;28;45380;-76
2022/01/10 05:03:39;;;;;;;;;8.50;8.25;;;;;4.52;74.41;101098.38;5062102;28;45280;-76
2022/01/10 05:06:05;;;;;;;;;8.50;8.50;;;;;4.48;74.42;101099.97;5061906;28;45371;-76
2022/01/10 05:08:30;;;;;;;;;10.25;5.75;;;;;4.48;74.81;101093.94;5041729;28;46166;-76
2022/01/10 05:10:56;;;;;;;;;2.00;2.00;;;;;4.44;74.65;101092.91;5023703;28;45443;-76
2022/01/10 05:13:23;;;;;;;;;4.75;4.00;;;;;4.39;74.82;101089.28;5051733;28;45566;-76
2022/01/10 05:15:50;;;;;;;;;7.25;6.75;;;;;4.42;74.99;101098.03;5061438;28;45553;-77
2022/01/10 05:18:18;;;;;;;;;9.00;5.00;;;;;4.25;74.47;101076.72;5051617;28;46022;-77
2022/01/10 05:20:43;;;;;;;;;7.00;7.00;;;;;4.47;74.11;101121.41;5041247;28;45304;-77
2022/01/10 05:23:08;;;;;;;;;6.00;6.00;;;;;4.31;74.43;101102.75;5022753;28;45432;-78
2022/01/10 05:25:36;;;;;;;;;6.00;6.00;;;;;4.40;74.13;101120.28;5023148;28;45344;-78
2022/01/10 05:28:05;;;;;;;;;4.00;2.50;;;;;4.50;74.49;101134.41;5041275;28;45790;-78
2022/01/10 05:30:31;;;;;;;;;7.50;4.25;;;;;4.51;73.75;101136.19;5041053;28;45524;-77
2022/01/10 05:32:57;;;;;;;;;6.75;4.75;;;;;4.24;73.96;101093.00;5038999;28;45768;-77
2022/01/10 05:35:22;;;;;;;;;7.00;5.00;;;;;4.46;74.21;101148.00;5039767;28;45402;-78
2022/01/10 05:37:48;;;;;;;;;5.75;5.00;;;;;4.45;73.55;101143.69;5041123;28;45656;-78
2022/01/10 05:40:14;;;;;;;;;7.25;4.00;;;;;4.29;73.54;101129.28;5040529;28;45681;-77
2022/01/10 05:42:40;;;;;;;;;6.00;4.00;;;;;4.33;74.03;101132.84;5023045;28;45595;-78
2022/01/10 05:45:05;;;;;;;;;10.00;8.25;;;;;4.50;74.05;101160.19;5041049;28;45376;-77
2022/01/10 05:47:35;;;;;;;;;9.25;7.25;;;;;4.44;73.64;101159.94;5040957;28;46167;-77
2022/01/10 05:50:03;;;;;;;;;7.25;5.00;;;;;4.13;72.91;101120.03;5055941;28;45418;-77
2022/01/10 05:52:28;;;;;;;;;4.00;4.00;;;;;4.38;73.45;101183.78;5060989;28;45598;-78
2022/01/10 05:54:54;;;;;;;;;4.25;4.25;;;;;4.13;73.60;101145.78;5042020;28;45460;-79
2022/01/10 05:57:19;;;;;;;;;10.50;9.25;;;;;4.32;73.88;101186.13;5060976;28;45362;-78
2022/01/10 05:59:44;;;;;;;;;5.25;5.00;;;;;4.15;73.45;101170.84;5059460;28;45725;-78
2022/01/10 06:02:10;;;;;;;;;11.00;10.50;;;;;3.97;73.18;101160.63;5056605;28;45413;-78
2022/01/10 06:04:35;;;;;;;;;7.25;5.50;;;;;4.04;73.56;101184.94;5043875;28;45454;-80
2022/01/10 06:07:00;;;;;;;;;8.00;8.00;;;;;3.88;73.41;101173.09;5035257;28;47209;-79
2022/01/10 06:09:26;;;;;;;;;6.00;5.50;;;;;3.84;73.20;101190.13;5039404;28;45446;-79
2022/01/10 06:11:51;;;;;;;;;6.50;4.75;;;;;3.72;72.56;101190.47;5059819;28;45447;-79
2022/01/10 06:14:16;;;;;;;;;5.50;3.75;;;;;3.65;72.91;101211.63;5040167;28;45486;-79
2022/01/10 06:16:42;;;;;;;;;7.50;5.00;;;;;3.72;72.93;101239.41;5060669;28;46528;-79
2022/01/10 06:19:07;;;;;;;;;5.00;3.75;;;;;3.39;73.00;101203.59;5042453;28;45419;-78
2022/01/10 06:21:33;;;;;;;;;4.75;3.75;;;;;3.63;73.64;101254.44;5055296;28;45336;-78
2022/01/10 06:23:58;;;;;;;;;7.00;7.00;;;;;3.39;74.30;101237.94;5057242;28;45696;-77
2022/01/10 06:26:23;;;;;;;;;9.00;4.00;;;;;3.33;73.97;101239.31;5059863;28;45483;-78
2022/01/10 06:28:49;;;;;;;;;6.50;5.00;;;;;3.27;73.26;101234.78;5056495;28;46220;-78
2022/01/10 06:31:14;;;;;;;;;9.00;8.25;;;;;3.24;73.93;101222.66;5035172;28;45687;-77
2022/01/10 06:33:40;;;;;;;;;4.50;4.50;;;;;3.20;74.53;101223.34;5040737;28;45536;-77
2022/01/10 06:36:08;;;;;;;;;2.50;2.50;;;;;3.46;73.93;101275.13;5059472;28;46542;-77
2022/01/10 06:38:34;;;;;;;;;4.50;4.50;;;;;3.35;74.28;101253.16;5059808;28;45480;-78
2022/01/10 06:40:59;;;;;;;;;5.75;5.50;;;;;3.53;74.35;101281.47;5041941;28;45748;-78
2022/01/10 06:43:25;;;;;;;;;5.50;3.75;;;;;3.54;74.21;101267.75;5057476;28;45508;-79
2022/01/10 06:45:50;;;;;;;;;4.75;3.00;;;;;3.45;74.95;101237.34;5041776;28;47530;-77
2022/01/10 06:48:15;;;;;;;;;4.25;4.25;;;;;3.70;74.51;101279.66;5061296;28;45332;-78
2022/01/10 06:50:46;;;;;;;;;3.75;3.00;;;;;3.73;75.25;101277.22;5041444;28;45594;-79
2022/01/10 06:53:12;;;;;;;;;3.00;2.25;;;;;3.68;75.33;101273.56;5056839;28;45592;-77
2022/01/10 06:55:37;;;;;;;;;4.00;4.00;;;;;3.59;75.60;101252.53;5052387;28;45601;-77
2022/01/10 06:58:03;;;;;;;;;7.25;7.25;;;;;3.85;75.26;101300.06;5053841;28;45361;-79
2022/01/10 07:00:28;;;;;;;;;4.50;3.00;;;;;3.96;75.13;101336.63;5057100;28;45541;-80
2022/01/10 07:02:54;;;;;;;;;4.00;4.00;;;;;3.95;74.91;101337.44;5058429;28;45544;-79
2022/01/10 07:05:19;;;;;;;;;6.50;6.50;;;;;3.35;74.43;101250.59;5056887;28;46119;-80
2022/01/10 07:07:45;;;;;;;;;8.00;5.50;;;;;3.66;75.19;101322.41;5061539;28;45452;-81
2022/01/10 07:10:11;;;;;;;;;7.50;5.00;;;;;3.46;74.84;101290.56;5059681;28;45808;-78
2022/01/10 07:12:36;;;;;;;;;4.00;4.00;;;;;3.71;75.16;101342.34;5058673;28;45484;-78
2022/01/10 07:15:02;;;;;;;;;7.75;7.75;;;;;3.79;75.10;101372.78;5054254;28;45602;-80
2022/01/10 07:17:27;;;;;;;;;4.75;2.50;;;;;3.62;74.81;101347.94;5059257;28;45351;-81
2022/01/10 07:19:53;;;;;;;;;2.50;2.25;;;;;3.92;75.03;101400.00;5059045;28;45667;-79
2022/01/10 07:22:19;;;;;;;;;8.00;6.00;;;;;3.53;75.11;101330.38;5057286;28;45417;-77
2022/01/10 07:24:44;;;;;;;;;7.25;3.75;;;;;3.93;75.16;101406.03;5040028;28;48623;-80
2022/01/10 07:27:11;;;;;;;;;4.00;4.00;;;;;3.78;74.66;101401.06;5039683;28;45687;-75
2022/01/10 07:29:36;;;;;;;;;5.25;4.00;;;;;3.06;74.52;101276.69;5056070;28;45705;-77
2022/01/10 07:32:02;;;;;;;;;4.00;2.25;;;;;3.79;74.51;101407.97;5059051;28;45362;-76
2022/01/10 07:34:28;;;;;;;;;3.75;3.75;;;;;3.88;74.73;101428.13;5045055;28;45477;-76
2022/01/10 07:36:53;;;;;;;;;3.75;3.75;;;;;3.76;75.05;101418.13;5037120;28;45471;-76
2022/01/10 07:39:19;;;;;;;;;2.00;2.00;;;;;3.78;74.65;101437.13;5057411;28;45466;-77
2022/01/10 07:41:45;;;;;;;;;3.75;3.75;;;;;3.65;74.93;101423.63;5056759;28;45453;-77
2022/01/10 07:44:10;;;;;;;;;5.75;2.75;;;;;3.73;75.67;101434.31;5058052;28;45644;-77
2022/01/10 07:46:35;;;;;;;;;4.25;3.00;;;;;4.01;75.33;101463.09;5056277;28;45415;-77
2022/01/10 07:49:01;;;;;;;;;4.75;2.00;;;;;4.08;74.58;101464.25;5058377;28;45496;-78
2022/01/10 07:51:27;;;;;;;;;2.75;2.25;;;;;3.77;74.55;101415.63;5058471;28;45482;-77
2022/01/10 07:53:52;;;;;;;;;2.50;2.50;;;;;4.05;75.04;101458.13;5054911;28;46496;-77
2022/01/10 07:56:18;;;;;;;;;3.25;3.25;;;;;4.13;75.32;101479.13;5056597;28;45478;-77
2022/01/10 07:58:45;;;;;;;;;1.75;1.00;;;;;4.15;74.80;101479.19;5037037;28;45470;-77
2022/01/10 08:01:10;;;;;;;;;2.00;2.00;;;;;4.09;74.61;101481.47;5036721;28;45718;-78
2022/01/10 08:03:36;;;;;;;;;2.00;2.00;;;;;3.83;73.89;101425.31;5039741;28;46001;-78
2022/01/10 08:06:01;;;;;;;;;1.75;1.75;;;;;4.25;74.18;101495.97;5052129;28;45516;-78
2022/01/10 08:08:28;;;;;;;;;0.00;0.00;;;;;4.22;73.20;101485.53;5057949;28;45379;-78
2022/01/10 08:10:53;;;;;;;;;1.25;1.00;;;;;4.40;73.59;101519.91;5058481;28;45457;-79
2022/01/10 08:13:19;;;;;;;;;2.50;2.50;;;;;4.36;74.13;101505.09;5037191;28;45926;-78
2022/01/10 08:15:44;;;;;;;;;2.50;1.00;;;;;4.48;73.55;101537.41;5054270;28;45768;-75
2022/01/10 08:18:10;;;;;;;;;2.25;2.25;;;;;4.46;73.46;101532.19;5057253;28;45720;-77
2022/01/10 08:20:35;;;;;;;;;2.00;2.00;;;;;4.46;73.26;101514.13;5032649;28;45645;-77
2022/01/10 08:23:01;;;;;;;;;1.50;1.50;;;;;4.40;73.49;101500.97;5024237;28;47098;-77
2022/01/10 08:25:26;;;;;;;;;5.25;1.00;;;;;4.69;72.72;101535.81;5033241;28;45675;-77
2022/01/10 08:27:52;;;;;;;;;3.00;1.25;;;;;4.76;73.49;101538.69;5049146;28;46038;-79
2022/01/10 08:30:18;;;;;;;;;1.00;0.00;;;;;4.61;73.05;101523.38;5052491;28;45475;-80
2022/01/10 08:32:46;;;;;;;;;1.75;1.00;;;;;4.46;72.54;101493.50;5060284;28;45525;-76
2022/01/10 08:35:12;;;;;;;;;1.00;1.00;;;;;4.87;73.15;101550.38;5059925;28;45446;-76
2022/01/10 08:37:37;;;;;;;;;2.50;1.00;;;;;4.82;73.42;101547.59;4997242;28;47766;-76
2022/01/10 08:40:03;;;;;;;;;2.25;1.00;;;;;4.90;73.14;101549.66;5045751;28;47125;-77
2022/01/10 08:42:29;;;;;;;;;1.00;1.00;;;;;4.91;72.97;101556.56;5060545;28;45683;-76
2022/01/10 08:44:54;;;;;;;;;0.00;0.00;;;;;5.06;73.20;101577.88;5034312;28;45432;-77
2022/01/10 08:47:21;;;;;;;;;1.00;1.00;;;;;5.11;72.31;101569.50;5058696;28;45613;-80
2022/01/10 08:49:46;;;;;;;;;1.00;1.00;;;;;4.99;72.42;101542.28;5026761;28;45550;-78
2022/01/10 08:52:12;;;;;;;;;1.00;1.00;;;;;4.85;72.30;101508.16;5042495;28;47622;-78
2022/01/10 08:54:37;;;;;;;;;1.00;0.00;;;;;5.03;72.12;101539.03;5042749;28;45456;-78
2022/01/10 08:57:03;;;;;;;;;1.00;1.00;;;;;5.30;72.49;101592.72;5059431;28;45367;-78
2022/01/10 08:59:29;;;;;;;;;1.00;0.00;;;;;5.28;71.89;101598.63;5041228;28;46461;-77
2022/01/10 09:01:56;;;;;;;;;2.50;2.00;;;;;5.18;72.55;101589.59;5040542;28;47185;-80
2022/01/10 09:04:21;;;;;;;;;2.75;2.75;;;;;5.32;71.88;101616.91;5053011;28;45473;-79
2022/01/10 09:06:49;;;;;;;;;1.00;1.00;;;;;5.04;72.07;101576.06;5061823;28;45459;-85
2022/01/10 09:09:15;;;;;;;;;2.25;1.00;;;;;5.00;72.06;101579.31;5057311;28;45414;-81
2022/01/10 09:11:41;;;;;;;;;2.00;0.00;;;;;5.26;71.68;101628.66;5059407;28;46204;-80
2022/01/10 09:14:07;;;;;;;;;0.00;0.00;;;;;4.52;72.28;101518.69;5054657;28;45529;-84
2022/01/10 09:16:33;;;;;;;;;1.50;1.50;;;;;5.04;72.33;101607.94;5043988;28;45551;-79
2022/01/10 09:18:58;;;;;;;;;0.00;0.00;;;;;5.24;71.98;101640.63;5058213;28;45552;-80
2022/01/10 09:21:25;;;;;;;;;1.00;1.00;;;;;4.96;71.97;101595.50;5052117;28;45402;-81
2022/01/10 09:23:50;;;;;;;;;2.00;0.00;;;;;4.42;71.89;101489.03;5042031;28;45729;-80
2022/01/10 09:26:16;;;;;;;;;0.75;0.00;;;;;4.76;71.98;101539.59;5063609;28;45316;-80
2022/01/10 09:28:43;;;;;;;;;0.75;0.75;;;;;5.38;71.84;101646.38;5062038;28;45653;-80
2022/01/10 09:31:09;;;;;;;;;1.25;1.00;;;;;4.95;72.20;101586.84;5060200;28;46048;-82
2022/01/10 09:33:35;;;;;;;;;0.00;0.00;;;;;5.36;72.42;101643.72;5039791;28;45525;-82
2022/01/10 09:36:00;;;;;;;;;1.75;1.75;;;;;5.54;71.63;101669.50;5045157;28;45514;-82
2022/01/10 09:38:26;;;;;;;;;1.00;1.00;;;;;5.40;72.09;101625.00;5047845;28;45538;-82
2022/01/10 09:40:51;;;;;;;;;1.75;1.75;;;;;4.92;71.46;101543.72;5057487;28;46614;-82
2022/01/10 09:43:18;;;;;;;;;0.50;0.50;;;;;4.90;71.86;101540.19;5038598;28;45539;-82
2022/01/10 09:45:43;;;;;;;;;3.00;0.00;;;;;4.98;71.25;101552.56;5045994;28;45460;-81
2022/01/10 09:48:09;;;;;;;;;1.50;1.25;;;;;5.68;71.53;101669.22;5061660;28;45421;-82
2022/01/10 09:50:34;;;;;;;;;2.00;0.25;;;;;5.10;71.19;101576.34;5061134;28;45872;-81
2022/01/10 09:53:00;;;;;;;;;1.00;1.00;;;;;5.24;71.64;101597.59;5051916;28;45610;-81
2022/01/10 09:55:30;;;;;;;;;1.00;1.00;;;;;5.30;71.62;101620.25;5060921;28;45491;-82
2022/01/10 09:57:56;;;;;;;;;2.00;2.00;;;;;5.63;71.22;101675.91;5048573;28;46131;-83
2022/01/10 10:00:21;;;;;;;;;1.50;1.50;;;;;4.86;71.33;101574.41;5058916;28;46042;-82
2022/01/10 10:02:48;;;;;;;;;2.00;0.00;;;;;5.66;71.46;101700.16;5059542;28;46594;-82
2022/01/10 10:05:14;;;;;;;;;0.00;0.00;;;;;5.13;72.09;101622.94;5062404;28;45516;-82
2022/01/10 10:07:40;;;;;;;;;1.75;1.75;;;;;5.17;71.71;101629.13;5055166;28;46183;-83
2022/01/10 10:10:12;;;;;;;;;1.50;1.50;;;;;5.74;71.86;101726.34;5055112;28;46150;-82
2022/01/10 10:12:42;;;;;;;;;1.75;1.75;;;;;5.67;71.78;101696.75;5060110;28;45486;-82
2022/01/10 10:15:11;;;;;;;;;3.25;0.00;;;;;5.40;71.45;101656.00;5058986;28;45617;-84
2022/01/10 10:17:38;;;;;;;;;0.25;0.00;;;;;5.33;71.15;101665.16;5030184;28;45407;-79
2022/01/10 10:20:14;;;;;;;;;2.00;2.00;;;;;5.42;72.01;101669.84;5060192;28;45623;-81
2022/01/10 10:22:40;;;;;;;;;4.25;2.00;;;;;5.24;71.92;101622.53;5058950;28;45414;-81
2022/01/10 10:25:10;;;;;;;;;3.75;1.25;;;;;5.72;72.05;101715.06;5068653;28;45485;-83
2022/01/10 10:27:42;;;;;;;;;3.00;1.50;;;;;5.56;72.00;101665.31;5050103;28;46305;-81
2022/01/10 10:30:12;;;;;;;;;1.00;1.00;;;;;5.98;71.88;101723.09;5059308;28;46288;-80
2022/01/10 10:32:37;;;;;;;;;2.00;2.00;;;;;5.91;71.53;101727.09;5061418;28;45525;-79
2022/01/10 10:35:06;;;;;;;;;1.75;0.00;;;;;5.61;71.85;101696.50;5059031;28;45521;-80
2022/01/10 10:37:36;;;;;;;;;1.00;1.00;;;;;5.52;71.87;101694.41;5050802;28;45386;-78
2022/01/10 10:40:05;;;;;;;;;0.00;0.00;;;;;5.40;71.93;101665.44;5060466;28;45670;-77
2022/01/10 10:42:32;;;;;;;;;0.25;0.25;;;;;5.65;71.43;101726.81;5060277;28;45447;-78
2022/01/10 10:45:02;;;;;;;;;5.25;2.50;;;;;5.29;71.70;101676.16;5056764;28;45547;-79
2022/01/10 10:47:27;;;;;;;;;1.25;1.00;;;;;5.26;72.22;101677.69;5055611;28;45453;-79
2022/01/10 10:50:00;;;;;;;;;1.00;1.00;;;;;5.68;72.25;101736.41;5063088;28;45472;-80
2022/01/10 10:52:36;;;;;;;;;2.75;1.00;;;;;5.33;72.35;101677.19;5067927;28;44796;-77
2022/01/10 10:55:08;;;;;;;;;1.00;0.00;;;;;5.87;72.12;101768.22;5057762;28;45363;-80
2022/01/10 10:57:34;;;;;;;;;3.00;1.00;;;;;5.59;71.93;101716.22;5061908;28;45639;-78
2022/01/10 11:00:01;;;;;;;;;1.00;1.00;;;;;5.92;72.46;101767.66;5054410;28;45518;-79
2022/01/10 11:02:27;;;;;;;;;1.50;1.50;;;;;5.44;72.20;101675.06;5057778;28;45425;-81
2022/01/10 11:04:53;;;;;;;;;0.00;0.00;;;;;5.58;72.54;101693.78;5052274;28;47001;-80
2022/01/10 11:07:23;;;;;;;;;2.00;2.00;;;;;5.93;72.17;101743.56;5056117;28;45603;-79
2022/01/10 11:09:49;;;;;;;;;3.75;1.25;;;;;5.72;72.23;101714.19;5060052;28;45413;-81
2022/01/10 11:12:17;;;;;;;;;1.25;1.25;;;;;5.82;71.95;101742.22;5059201;28;45788;-79
2022/01/10 11:14:43;;;;;;;;;4.00;1.75;;;;;5.78;71.78;101759.25;5055438;28;45570;-79
2022/01/10 11:17:16;;;;;;;;;2.00;0.00;;;;;5.71;72.58;101741.72;5056056;28;45433;-79
2022/01/10 11:19:42;;;;;;;;;2.50;1.50;;;;;5.81;71.99;101755.91;5056481;28;45417;-79
2022/01/10 11:22:08;;;;;;;;;0.00;0.00;;;;;5.55;72.26;101722.06;5057150;28;45510;-79
2022/01/10 11:24:46;;;;;;;;;1.25;1.25;;;;;5.89;72.19;101779.53;5059139;28;45433;-79
2022/01/10 11:27:44;;;;;;;;;1.00;1.00;;;;;5.88;72.15;101786.38;5053875;28;45437;-78
2022/01/10 11:30:24;;;;;;;;;3.75;3.75;;;;;5.86;72.80;101777.69;5022353;28;45537;-79
2022/01/10 11:33:01;;;;;;;;;3.50;2.00;;;;;5.91;72.57;101783.94;5041878;28;45528;-81
2022/01/10 11:35:28;;;;;;;;;3.00;3.00;;;;;5.86;72.20;101774.22;5052381;28;45551;-78
2022/01/10 11:37:55;;;;;;;;;4.00;1.00;;;;;6.02;72.27;101789.59;5040633;28;45537;-79
2022/01/10 11:40:21;;;;;;;;;2.00;2.00;;;;;5.51;71.81;101699.50;5039965;28;45487;-78